sensor_id;sensor_type;location;lat;lon;timestamp;P1;durP1;ratioP1;P2;durP2;ratioP2
57551;SDS011;43379;48.160;14.036;2023-08-21T00:01:00;12.27;;;11.37;;
57551;SDS011;43379;48.160;14.036;2023-08-21T00:03:26;12.70;;;11.70;;
57551;SDS011;43379;48.160;14.036;2023-08-21T00:05:52;12.03;;;11.13;;
57551;SDS011;43379;48.160;14.036;2023-08-21T00:08:18;12.30;;;10.77;;
57551;SDS011;43379;48.160;14.036;2023-08-21T00:10:43;11.33;;;10.53;;
57551;SDS011;43379;48.160;14.036;2023-08-21T00:13:09;12.93;;;11.73;;
57551;SDS011;43379;48.160;14.036;2023-08-21T00:15:36;11.83;;;10.77;;
57551;SDS011;43379;48.160;14.036;2023-08-21T00:18:03;11.67;;;10.70;;
57551;SDS011;43379;48.160;14.036;2023-08-21T00:20:29;11.57;;;10.63;;
57551;SDS011;43379;48.160;14.036;2023-08-21T00:22:54;11.60;;;10.70;;
57551;SDS011;43379;48.160;14.036;2023-08-21T00:25:21;11.53;;;10.67;;
57551;SDS011;43379;48.160;14.036;2023-08-21T00:27:47;13.23;;;11.13;;
57551;SDS011;43379;48.160;14.036;2023-08-21T00:30:12;11.63;;;10.83;;
57551;SDS011;43379;48.160;14.036;2023-08-21T00:32:40;11.60;;;10.80;;
57551;SDS011;43379;48.160;14.036;2023-08-21T00:35:06;11.00;;;10.10;;
57551;SDS011;43379;48.160;14.036;2023-08-21T00:37:32;12.13;;;11.03;;
57551;SDS011;43379;48.160;14.036;2023-08-21T00:39:57;12.13;;;11.30;;
57551;SDS011;43379;48.160;14.036;2023-08-21T00:42:23;11.87;;;10.87;;
57551;SDS011;43379;48.160;14.036;2023-08-21T00:44:48;11.53;;;10.73;;
57551;SDS011;43379;48.160;14.036;2023-08-21T00:47:14;12.07;;;11.20;;
57551;SDS011;43379;48.160;14.036;2023-08-21T00:49:40;12.43;;;11.33;;
57551;SDS011;43379;48.160;14.036;2023-08-21T00:52:10;12.67;;;11.57;;
57551;SDS011;43379;48.160;14.036;2023-08-21T00:54:37;12.60;;;11.60;;
57551;SDS011;43379;48.160;14.036;2023-08-21T00:57:03;12.87;;;11.70;;
57551;SDS011;43379;48.160;14.036;2023-08-21T00:59:29;12.40;;;11.50;;
57551;SDS011;43379;48.160;14.036;2023-08-21T01:01:55;12.17;;;11.27;;
57551;SDS011;43379;48.160;14.036;2023-08-21T01:04:21;11.67;;;10.80;;
57551;SDS011;43379;48.160;14.036;2023-08-21T01:06:50;11.90;;;11.00;;
57551;SDS011;43379;48.160;14.036;2023-08-21T01:12:05;13.30;;;12.07;;
57551;SDS011;43379;48.160;14.036;2023-08-21T01:14:28;15.70;;;10.33;;
57551;SDS011;43379;48.160;14.036;2023-08-21T01:17:17;12.70;;;11.60;;
57551;SDS011;43379;48.160;14.036;2023-08-21T01:19:46;11.70;;;10.90;;
57551;SDS011;43379;48.160;14.036;2023-08-21T01:22:13;12.20;;;11.30;;
57551;SDS011;43379;48.160;14.036;2023-08-21T01:24:39;12.37;;;11.20;;
57551;SDS011;43379;48.160;14.036;2023-08-21T01:27:05;11.43;;;10.63;;
57551;SDS011;43379;48.160;14.036;2023-08-21T01:29:30;12.60;;;11.60;;
57551;SDS011;43379;48.160;14.036;2023-08-21T01:34:34;11.70;;;10.60;;
57551;SDS011;43379;48.160;14.036;2023-08-21T01:37:02;12.23;;;11.33;;
57551;SDS011;43379;48.160;14.036;2023-08-21T01:39:29;13.10;;;12.10;;
57551;SDS011;43379;48.160;14.036;2023-08-21T01:41:56;13.17;;;12.17;;
57551;SDS011;43379;48.160;14.036;2023-08-21T01:44:22;12.40;;;11.50;;
57551;SDS011;43379;48.160;14.036;2023-08-21T01:46:48;13.77;;;12.77;;
57551;SDS011;43379;48.160;14.036;2023-08-21T01:49:14;13.03;;;11.93;;
57551;SDS011;43379;48.160;14.036;2023-08-21T01:51:39;12.50;;;11.60;;
57551;SDS011;43379;48.160;14.036;2023-08-21T01:54:05;12.50;;;11.60;;
57551;SDS011;43379;48.160;14.036;2023-08-21T01:56:30;12.43;;;11.40;;
57551;SDS011;43379;48.160;14.036;2023-08-21T01:58:56;12.80;;;11.80;;
57551;SDS011;43379;48.160;14.036;2023-08-21T02:01:22;13.17;;;11.90;;
57551;SDS011;43379;48.160;14.036;2023-08-21T02:03:48;13.70;;;12.10;;
57551;SDS011;43379;48.160;14.036;2023-08-21T02:06:14;13.03;;;11.77;;
57551;SDS011;43379;48.160;14.036;2023-08-21T02:08:39;13.30;;;12.30;;
57551;SDS011;43379;48.160;14.036;2023-08-21T02:11:05;13.23;;;12.00;;
57551;SDS011;43379;48.160;14.036;2023-08-21T02:13:31;13.30;;;12.10;;
57551;SDS011;43379;48.160;14.036;2023-08-21T02:15:58;12.90;;;11.70;;
57551;SDS011;43379;48.160;14.036;2023-08-21T02:18:23;13.13;;;12.03;;
57551;SDS011;43379;48.160;14.036;2023-08-21T02:20:49;12.70;;;11.80;;
57551;SDS011;43379;48.160;14.036;2023-08-21T02:23:15;11.47;;;10.67;;
57551;SDS011;43379;48.160;14.036;2023-08-21T02:25:41;11.90;;;11.00;;
57551;SDS011;43379;48.160;14.036;2023-08-21T02:28:07;12.13;;;11.13;;
57551;SDS011;43379;48.160;14.036;2023-08-21T02:30:33;12.73;;;11.83;;
57551;SDS011;43379;48.160;14.036;2023-08-21T02:32:59;14.27;;;12.57;;
57551;SDS011;43379;48.160;14.036;2023-08-21T02:35:24;13.67;;;12.67;;
57551;SDS011;43379;48.160;14.036;2023-08-21T02:37:50;12.70;;;11.70;;
57551;SDS011;43379;48.160;14.036;2023-08-21T02:40:16;14.57;;;13.07;;
57551;SDS011;43379;48.160;14.036;2023-08-21T02:42:41;12.43;;;11.33;;
57551;SDS011;43379;48.160;14.036;2023-08-21T02:45:07;13.07;;;12.17;;
57551;SDS011;43379;48.160;14.036;2023-08-21T02:47:37;13.10;;;12.10;;
57551;SDS011;43379;48.160;14.036;2023-08-21T02:50:04;13.20;;;12.00;;
57551;SDS011;43379;48.160;14.036;2023-08-21T02:52:31;11.97;;;10.97;;
57551;SDS011;43379;48.160;14.036;2023-08-21T02:54:57;12.37;;;11.17;;
57551;SDS011;43379;48.160;14.036;2023-08-21T02:57:23;13.33;;;12.37;;
57551;SDS011;43379;48.160;14.036;2023-08-21T02:59:50;12.30;;;11.50;;
57551;SDS011;43379;48.160;14.036;2023-08-21T03:02:15;13.93;;;12.73;;
57551;SDS011;43379;48.160;14.036;2023-08-21T03:04:42;12.73;;;11.80;;
57551;SDS011;43379;48.160;14.036;2023-08-21T03:07:07;12.53;;;11.53;;
57551;SDS011;43379;48.160;14.036;2023-08-21T03:09:33;12.80;;;11.90;;
57551;SDS011;43379;48.160;14.036;2023-08-21T03:11:59;12.80;;;11.90;;
57551;SDS011;43379;48.160;14.036;2023-08-21T03:14:26;12.20;;;11.20;;
57551;SDS011;43379;48.160;14.036;2023-08-21T03:16:51;11.87;;;10.97;;
57551;SDS011;43379;48.160;14.036;2023-08-21T03:19:17;12.40;;;11.50;;
57551;SDS011;43379;48.160;14.036;2023-08-21T03:21:42;12.07;;;11.17;;
57551;SDS011;43379;48.160;14.036;2023-08-21T03:24:08;11.73;;;10.73;;
57551;SDS011;43379;48.160;14.036;2023-08-21T03:26:34;14.33;;;13.13;;
57551;SDS011;43379;48.160;14.036;2023-08-21T03:28:59;12.70;;;11.50;;
57551;SDS011;43379;48.160;14.036;2023-08-21T03:31:25;13.27;;;12.13;;
57551;SDS011;43379;48.160;14.036;2023-08-21T03:33:51;13.40;;;12.40;;
57551;SDS011;43379;48.160;14.036;2023-08-21T03:36:17;12.57;;;11.57;;
57551;SDS011;43379;48.160;14.036;2023-08-21T03:38:42;12.07;;;11.17;;
57551;SDS011;43379;48.160;14.036;2023-08-21T03:41:08;12.33;;;11.03;;
57551;SDS011;43379;48.160;14.036;2023-08-21T03:43:34;13.33;;;12.43;;
57551;SDS011;43379;48.160;14.036;2023-08-21T03:45:59;13.03;;;11.97;;
57551;SDS011;43379;48.160;14.036;2023-08-21T03:48:25;11.90;;;10.90;;
57551;SDS011;43379;48.160;14.036;2023-08-21T03:50:51;13.03;;;12.03;;
57551;SDS011;43379;48.160;14.036;2023-08-21T03:53:16;13.27;;;12.27;;
57551;SDS011;43379;48.160;14.036;2023-08-21T03:55:42;13.20;;;12.27;;
57551;SDS011;43379;48.160;14.036;2023-08-21T03:58:08;12.53;;;11.63;;
57551;SDS011;43379;48.160;14.036;2023-08-21T04:00:34;12.40;;;11.40;;
57551;SDS011;43379;48.160;14.036;2023-08-21T04:02:59;13.13;;;12.13;;
57551;SDS011;43379;48.160;14.036;2023-08-21T04:05:25;13.60;;;12.40;;
57551;SDS011;43379;48.160;14.036;2023-08-21T04:07:50;13.00;;;12.00;;
57551;SDS011;43379;48.160;14.036;2023-08-21T04:10:16;12.27;;;11.37;;
57551;SDS011;43379;48.160;14.036;2023-08-21T04:12:42;12.10;;;11.20;;
57551;SDS011;43379;48.160;14.036;2023-08-21T04:15:08;11.87;;;10.97;;
57551;SDS011;43379;48.160;14.036;2023-08-21T04:17:34;13.50;;;12.17;;
57551;SDS011;43379;48.160;14.036;2023-08-21T04:19:59;13.37;;;12.37;;
57551;SDS011;43379;48.160;14.036;2023-08-21T04:22:25;14.53;;;13.37;;
57551;SDS011;43379;48.160;14.036;2023-08-21T04:24:51;13.67;;;12.57;;
57551;SDS011;43379;48.160;14.036;2023-08-21T04:27:16;12.83;;;11.83;;
57551;SDS011;43379;48.160;14.036;2023-08-21T04:29:42;14.60;;;13.07;;
57551;SDS011;43379;48.160;14.036;2023-08-21T04:32:08;14.13;;;12.80;;
57551;SDS011;43379;48.160;14.036;2023-08-21T04:34:33;13.43;;;12.53;;
57551;SDS011;43379;48.160;14.036;2023-08-21T04:36:59;14.00;;;12.70;;
57551;SDS011;43379;48.160;14.036;2023-08-21T04:39:25;13.17;;;12.13;;
57551;SDS011;43379;48.160;14.036;2023-08-21T04:41:51;13.97;;;12.97;;
57551;SDS011;43379;48.160;14.036;2023-08-21T04:44:16;13.90;;;12.70;;
57551;SDS011;43379;48.160;14.036;2023-08-21T04:46:42;15.27;;;13.87;;
57551;SDS011;43379;48.160;14.036;2023-08-21T04:49:08;14.17;;;12.93;;
57551;SDS011;43379;48.160;14.036;2023-08-21T04:51:34;14.40;;;13.20;;
57551;SDS011;43379;48.160;14.036;2023-08-21T04:53:59;13.57;;;12.30;;
57551;SDS011;43379;48.160;14.036;2023-08-21T04:56:25;13.90;;;12.60;;
57551;SDS011;43379;48.160;14.036;2023-08-21T04:58:51;14.10;;;13.00;;
57551;SDS011;43379;48.160;14.036;2023-08-21T05:01:17;14.53;;;13.40;;
57551;SDS011;43379;48.160;14.036;2023-08-21T05:03:43;14.27;;;12.97;;
57551;SDS011;43379;48.160;14.036;2023-08-21T05:06:08;14.47;;;13.13;;
57551;SDS011;43379;48.160;14.036;2023-08-21T05:08:34;15.10;;;13.77;;
57551;SDS011;43379;48.160;14.036;2023-08-21T05:11:00;14.73;;;13.43;;
57551;SDS011;43379;48.160;14.036;2023-08-21T05:13:26;13.37;;;12.27;;
57551;SDS011;43379;48.160;14.036;2023-08-21T05:15:53;14.60;;;13.40;;
57551;SDS011;43379;48.160;14.036;2023-08-21T05:18:20;14.23;;;12.90;;
57551;SDS011;43379;48.160;14.036;2023-08-21T05:20:46;15.43;;;14.33;;
57551;SDS011;43379;48.160;14.036;2023-08-21T05:23:13;14.70;;;13.40;;
57551;SDS011;43379;48.160;14.036;2023-08-21T05:25:38;14.63;;;13.30;;
57551;SDS011;43379;48.160;14.036;2023-08-21T05:28:04;14.93;;;13.73;;
57551;SDS011;43379;48.160;14.036;2023-08-21T05:30:31;14.40;;;13.40;;
57551;SDS011;43379;48.160;14.036;2023-08-21T05:32:56;14.20;;;13.10;;
57551;SDS011;43379;48.160;14.036;2023-08-21T05:35:22;13.93;;;12.83;;
57551;SDS011;43379;48.160;14.036;2023-08-21T05:37:48;12.53;;;11.50;;
57551;SDS011;43379;48.160;14.036;2023-08-21T05:40:13;13.33;;;12.20;;
57551;SDS011;43379;48.160;14.036;2023-08-21T05:42:39;13.17;;;12.07;;
57551;SDS011;43379;48.160;14.036;2023-08-21T05:45:05;13.73;;;12.63;;
57551;SDS011;43379;48.160;14.036;2023-08-21T05:47:31;12.30;;;11.30;;
57551;SDS011;43379;48.160;14.036;2023-08-21T05:49:57;12.03;;;11.03;;
57551;SDS011;43379;48.160;14.036;2023-08-21T05:52:23;11.90;;;10.80;;
57551;SDS011;43379;48.160;14.036;2023-08-21T05:54:48;11.37;;;10.47;;
57551;SDS011;43379;48.160;14.036;2023-08-21T05:57:14;11.90;;;10.90;;
57551;SDS011;43379;48.160;14.036;2023-08-21T05:59:46;12.00;;;11.10;;
57551;SDS011;43379;48.160;14.036;2023-08-21T06:02:13;11.03;;;10.30;;
57551;SDS011;43379;48.160;14.036;2023-08-21T06:04:42;10.43;;;9.73;;
57551;SDS011;43379;48.160;14.036;2023-08-21T06:07:08;10.20;;;9.60;;
57551;SDS011;43379;48.160;14.036;2023-08-21T06:09:34;11.53;;;10.53;;
57551;SDS011;43379;48.160;14.036;2023-08-21T06:12:01;10.03;;;9.33;;
57551;SDS011;43379;48.160;14.036;2023-08-21T06:14:30;10.70;;;9.80;;
57551;SDS011;43379;48.160;14.036;2023-08-21T06:16:59;11.70;;;10.50;;
57551;SDS011;43379;48.160;14.036;2023-08-21T06:19:29;10.93;;;10.03;;
57551;SDS011;43379;48.160;14.036;2023-08-21T06:21:55;10.67;;;9.40;;
57551;SDS011;43379;48.160;14.036;2023-08-21T06:24:21;11.60;;;10.57;;
57551;SDS011;43379;48.160;14.036;2023-08-21T06:26:47;10.00;;;9.20;;
57551;SDS011;43379;48.160;14.036;2023-08-21T06:29:12;10.23;;;9.33;;
57551;SDS011;43379;48.160;14.036;2023-08-21T06:31:38;10.63;;;9.70;;
57551;SDS011;43379;48.160;14.036;2023-08-21T06:34:04;12.00;;;10.80;;
57551;SDS011;43379;48.160;14.036;2023-08-21T06:36:30;10.27;;;9.57;;
57551;SDS011;43379;48.160;14.036;2023-08-21T06:38:55;8.90;;;8.30;;
57551;SDS011;43379;48.160;14.036;2023-08-21T06:41:21;10.57;;;9.67;;
57551;SDS011;43379;48.160;14.036;2023-08-21T06:43:47;10.87;;;9.90;;
57551;SDS011;43379;48.160;14.036;2023-08-21T06:46:13;9.90;;;9.20;;
57551;SDS011;43379;48.160;14.036;2023-08-21T06:48:39;10.37;;;9.33;;
57551;SDS011;43379;48.160;14.036;2023-08-21T06:51:06;10.80;;;9.70;;
57551;SDS011;43379;48.160;14.036;2023-08-21T06:53:32;10.70;;;9.80;;
57551;SDS011;43379;48.160;14.036;2023-08-21T06:55:57;9.83;;;9.13;;
57551;SDS011;43379;48.160;14.036;2023-08-21T06:58:23;11.27;;;10.30;;
57551;SDS011;43379;48.160;14.036;2023-08-21T07:00:49;11.00;;;10.20;;
57551;SDS011;43379;48.160;14.036;2023-08-21T07:03:14;10.33;;;9.53;;
57551;SDS011;43379;48.160;14.036;2023-08-21T07:05:40;11.63;;;10.83;;
57551;SDS011;43379;48.160;14.036;2023-08-21T07:08:05;12.57;;;11.67;;
57551;SDS011;43379;48.160;14.036;2023-08-21T07:10:37;10.93;;;10.13;;
57551;SDS011;43379;48.160;14.036;2023-08-21T07:13:03;12.67;;;11.67;;
57551;SDS011;43379;48.160;14.036;2023-08-21T07:15:29;11.87;;;11.07;;
57551;SDS011;43379;48.160;14.036;2023-08-21T07:17:55;11.27;;;10.47;;
57551;SDS011;43379;48.160;14.036;2023-08-21T07:20:21;12.87;;;12.07;;
57551;SDS011;43379;48.160;14.036;2023-08-21T07:22:47;12.87;;;11.60;;
57551;SDS011;43379;48.160;14.036;2023-08-21T07:25:12;12.90;;;11.90;;
57551;SDS011;43379;48.160;14.036;2023-08-21T07:27:38;12.10;;;11.20;;
57551;SDS011;43379;48.160;14.036;2023-08-21T07:30:05;13.10;;;10.83;;
57551;SDS011;43379;48.160;14.036;2023-08-21T07:32:31;11.83;;;11.00;;
57551;SDS011;43379;48.160;14.036;2023-08-21T07:34:57;13.23;;;12.03;;
57551;SDS011;43379;48.160;14.036;2023-08-21T07:37:23;12.37;;;11.27;;
57551;SDS011;43379;48.160;14.036;2023-08-21T07:39:48;15.47;;;11.90;;
57551;SDS011;43379;48.160;14.036;2023-08-21T07:42:14;12.23;;;11.43;;
57551;SDS011;43379;48.160;14.036;2023-08-21T07:44:40;11.50;;;10.60;;
57551;SDS011;43379;48.160;14.036;2023-08-21T07:47:06;11.80;;;10.77;;
57551;SDS011;43379;48.160;14.036;2023-08-21T07:49:32;11.57;;;10.70;;
57551;SDS011;43379;48.160;14.036;2023-08-21T07:51:58;12.13;;;11.07;;
57551;SDS011;43379;48.160;14.036;2023-08-21T07:54:24;12.40;;;11.37;;
57551;SDS011;43379;48.160;14.036;2023-08-21T07:56:50;14.40;;;13.20;;
57551;SDS011;43379;48.160;14.036;2023-08-21T07:59:16;12.30;;;11.10;;
57551;SDS011;43379;48.160;14.036;2023-08-21T08:01:41;12.97;;;11.70;;
57551;SDS011;43379;48.160;14.036;2023-08-21T08:04:07;13.47;;;12.27;;
57551;SDS011;43379;48.160;14.036;2023-08-21T08:06:33;13.03;;;11.83;;
57551;SDS011;43379;48.160;14.036;2023-08-21T08:08:59;11.80;;;10.90;;
57551;SDS011;43379;48.160;14.036;2023-08-21T08:11:25;23.10;;;13.37;;
57551;SDS011;43379;48.160;14.036;2023-08-21T08:13:51;11.80;;;10.90;;
57551;SDS011;43379;48.160;14.036;2023-08-21T08:16:16;20.00;;;16.60;;
57551;SDS011;43379;48.160;14.036;2023-08-21T08:18:42;14.67;;;13.17;;
57551;SDS011;43379;48.160;14.036;2023-08-21T08:21:08;13.70;;;12.37;;
57551;SDS011;43379;48.160;14.036;2023-08-21T08:23:35;13.37;;;12.10;;
57551;SDS011;43379;48.160;14.036;2023-08-21T08:26:01;13.20;;;11.90;;
57551;SDS011;43379;48.160;14.036;2023-08-21T08:28:27;13.50;;;12.43;;
57551;SDS011;43379;48.160;14.036;2023-08-21T08:30:53;12.07;;;10.87;;
57551;SDS011;43379;48.160;14.036;2023-08-21T08:33:19;11.77;;;10.60;;
57551;SDS011;43379;48.160;14.036;2023-08-21T08:35:45;12.30;;;11.30;;
57551;SDS011;43379;48.160;14.036;2023-08-21T08:38:11;11.07;;;9.83;;
57551;SDS011;43379;48.160;14.036;2023-08-21T08:40:37;11.63;;;10.70;;
57551;SDS011;43379;48.160;14.036;2023-08-21T08:43:10;11.40;;;9.93;;
57551;SDS011;43379;48.160;14.036;2023-08-21T08:45:39;10.90;;;10.00;;
57551;SDS011;43379;48.160;14.036;2023-08-21T08:48:06;11.77;;;10.60;;
57551;SDS011;43379;48.160;14.036;2023-08-21T08:50:33;10.60;;;9.83;;
57551;SDS011;43379;48.160;14.036;2023-08-21T08:53:00;11.03;;;10.20;;
57551;SDS011;43379;48.160;14.036;2023-08-21T08:55:26;11.77;;;10.80;;
57551;SDS011;43379;48.160;14.036;2023-08-21T08:57:52;9.80;;;9.10;;
57551;SDS011;43379;48.160;14.036;2023-08-21T09:00:18;11.60;;;10.50;;
57551;SDS011;43379;48.160;14.036;2023-08-21T09:02:45;10.03;;;9.33;;
57551;SDS011;43379;48.160;14.036;2023-08-21T09:05:11;10.47;;;9.77;;
57551;SDS011;43379;48.160;14.036;2023-08-21T09:07:38;11.20;;;10.10;;
57551;SDS011;43379;48.160;14.036;2023-08-21T09:10:04;10.67;;;9.67;;
57551;SDS011;43379;48.160;14.036;2023-08-21T09:12:38;9.70;;;8.87;;
57551;SDS011;43379;48.160;14.036;2023-08-21T09:15:07;10.93;;;10.23;;
57551;SDS011;43379;48.160;14.036;2023-08-21T09:17:33;11.13;;;10.17;;
57551;SDS011;43379;48.160;14.036;2023-08-21T09:20:05;11.33;;;10.47;;
57551;SDS011;43379;48.160;14.036;2023-08-21T09:22:35;10.70;;;9.90;;
57551;SDS011;43379;48.160;14.036;2023-08-21T09:27:35;10.67;;;9.87;;
57551;SDS011;43379;48.160;14.036;2023-08-21T09:30:03;11.30;;;10.50;;
57551;SDS011;43379;48.160;14.036;2023-08-21T09:32:30;10.73;;;10.03;;
57551;SDS011;43379;48.160;14.036;2023-08-21T09:34:56;11.50;;;10.63;;
57551;SDS011;43379;48.160;14.036;2023-08-21T09:37:23;9.93;;;9.10;;
57551;SDS011;43379;48.160;14.036;2023-08-21T09:40:00;10.40;;;9.60;;
57551;SDS011;43379;48.160;14.036;2023-08-21T09:42:32;10.53;;;9.83;;
57551;SDS011;43379;48.160;14.036;2023-08-21T09:44:57;11.97;;;10.77;;
57551;SDS011;43379;48.160;14.036;2023-08-21T09:47:23;11.50;;;10.40;;
57551;SDS011;43379;48.160;14.036;2023-08-21T09:49:51;9.77;;;9.07;;
57551;SDS011;43379;48.160;14.036;2023-08-21T09:52:17;10.97;;;10.17;;
57551;SDS011;43379;48.160;14.036;2023-08-21T09:54:42;9.63;;;8.83;;
57551;SDS011;43379;48.160;14.036;2023-08-21T09:57:08;10.87;;;9.97;;
57551;SDS011;43379;48.160;14.036;2023-08-21T09:59:35;10.47;;;9.67;;
57551;SDS011;43379;48.160;14.036;2023-08-21T10:02:03;10.27;;;9.40;;
57551;SDS011;43379;48.160;14.036;2023-08-21T10:04:30;9.87;;;9.10;;
57551;SDS011;43379;48.160;14.036;2023-08-21T10:06:59;11.20;;;10.00;;
57551;SDS011;43379;48.160;14.036;2023-08-21T10:09:28;9.70;;;9.00;;
57551;SDS011;43379;48.160;14.036;2023-08-21T10:11:54;9.70;;;9.10;;
57551;SDS011;43379;48.160;14.036;2023-08-21T10:14:21;10.00;;;9.20;;
57551;SDS011;43379;48.160;14.036;2023-08-21T10:16:50;8.80;;;8.10;;
57551;SDS011;43379;48.160;14.036;2023-08-21T10:19:18;9.50;;;8.80;;
57551;SDS011;43379;48.160;14.036;2023-08-21T10:21:46;9.20;;;8.40;;
57551;SDS011;43379;48.160;14.036;2023-08-21T10:24:13;9.37;;;8.60;;
57551;SDS011;43379;48.160;14.036;2023-08-21T10:26:52;10.83;;;10.03;;
57551;SDS011;43379;48.160;14.036;2023-08-21T10:29:18;10.30;;;9.33;;
57551;SDS011;43379;48.160;14.036;2023-08-21T10:31:43;11.27;;;10.37;;
57551;SDS011;43379;48.160;14.036;2023-08-21T10:34:12;11.07;;;10.27;;
57551;SDS011;43379;48.160;14.036;2023-08-21T10:39:17;10.23;;;9.37;;
57551;SDS011;43379;48.160;14.036;2023-08-21T10:44:35;11.23;;;10.33;;
57551;SDS011;43379;48.160;14.036;2023-08-21T10:49:50;10.30;;;9.47;;
57551;SDS011;43379;48.160;14.036;2023-08-21T10:52:22;10.07;;;9.20;;
57551;SDS011;43379;48.160;14.036;2023-08-21T10:54:50;10.20;;;9.50;;
57551;SDS011;43379;48.160;14.036;2023-08-21T10:57:29;10.87;;;9.90;;
57551;SDS011;43379;48.160;14.036;2023-08-21T10:59:59;10.43;;;9.63;;
57551;SDS011;43379;48.160;14.036;2023-08-21T11:02:27;10.00;;;9.30;;
57551;SDS011;43379;48.160;14.036;2023-08-21T11:04:57;10.13;;;9.50;;
57551;SDS011;43379;48.160;14.036;2023-08-21T11:07:24;9.73;;;8.93;;
57551;SDS011;43379;48.160;14.036;2023-08-21T11:09:50;10.93;;;9.87;;
57551;SDS011;43379;48.160;14.036;2023-08-21T11:12:17;11.43;;;10.63;;
57551;SDS011;43379;48.160;14.036;2023-08-21T11:14:44;11.40;;;10.50;;
57551;SDS011;43379;48.160;14.036;2023-08-21T11:17:10;10.17;;;9.47;;
57551;SDS011;43379;48.160;14.036;2023-08-21T11:19:37;10.07;;;9.17;;
57551;SDS011;43379;48.160;14.036;2023-08-21T11:22:03;9.93;;;9.23;;
57551;SDS011;43379;48.160;14.036;2023-08-21T11:27:02;9.70;;;9.07;;
57551;SDS011;43379;48.160;14.036;2023-08-21T11:29:36;10.77;;;9.90;;
57551;SDS011;43379;48.160;14.036;2023-08-21T11:32:10;9.83;;;8.73;;
57551;SDS011;43379;48.160;14.036;2023-08-21T11:34:36;10.27;;;9.47;;
57551;SDS011;43379;48.160;14.036;2023-08-21T11:37:02;11.13;;;10.13;;
57551;SDS011;43379;48.160;14.036;2023-08-21T11:39:49;9.87;;;9.07;;
57551;SDS011;43379;48.160;14.036;2023-08-21T11:42:17;10.07;;;9.13;;
57551;SDS011;43379;48.160;14.036;2023-08-21T11:44:49;10.10;;;9.40;;
57551;SDS011;43379;48.160;14.036;2023-08-21T11:47:17;10.70;;;9.80;;
57551;SDS011;43379;48.160;14.036;2023-08-21T11:49:45;10.20;;;9.50;;
57551;SDS011;43379;48.160;14.036;2023-08-21T11:52:12;11.20;;;10.27;;
57551;SDS011;43379;48.160;14.036;2023-08-21T11:54:39;12.33;;;10.20;;
57551;SDS011;43379;48.160;14.036;2023-08-21T11:57:07;9.90;;;9.20;;
57551;SDS011;43379;48.160;14.036;2023-08-21T11:59:34;10.93;;;9.97;;
57551;SDS011;43379;48.160;14.036;2023-08-21T12:02:00;11.93;;;10.90;;
57551;SDS011;43379;48.160;14.036;2023-08-21T12:04:26;11.37;;;10.50;;
57551;SDS011;43379;48.160;14.036;2023-08-21T12:06:52;10.47;;;9.47;;
57551;SDS011;43379;48.160;14.036;2023-08-21T12:09:18;10.97;;;10.13;;
57551;SDS011;43379;48.160;14.036;2023-08-21T12:11:46;11.30;;;10.30;;
57551;SDS011;43379;48.160;14.036;2023-08-21T12:14:12;11.40;;;10.30;;
57551;SDS011;43379;48.160;14.036;2023-08-21T12:16:37;10.70;;;9.93;;
57551;SDS011;43379;48.160;14.036;2023-08-21T12:19:03;10.33;;;9.57;;
57551;SDS011;43379;48.160;14.036;2023-08-21T12:21:29;12.50;;;11.20;;
57551;SDS011;43379;48.160;14.036;2023-08-21T12:23:54;10.43;;;9.70;;
57551;SDS011;43379;48.160;14.036;2023-08-21T12:26:20;10.27;;;9.53;;
57551;SDS011;43379;48.160;14.036;2023-08-21T12:28:49;10.93;;;10.17;;
57551;SDS011;43379;48.160;14.036;2023-08-21T12:31:15;10.57;;;9.50;;
57551;SDS011;43379;48.160;14.036;2023-08-21T12:33:41;10.13;;;9.30;;
57551;SDS011;43379;48.160;14.036;2023-08-21T12:36:07;10.20;;;9.50;;
57551;SDS011;43379;48.160;14.036;2023-08-21T12:38:35;10.27;;;9.47;;
57551;SDS011;43379;48.160;14.036;2023-08-21T12:41:02;10.60;;;9.80;;
57551;SDS011;43379;48.160;14.036;2023-08-21T12:43:28;10.37;;;9.57;;
57551;SDS011;43379;48.160;14.036;2023-08-21T12:45:53;10.50;;;9.67;;
57551;SDS011;43379;48.160;14.036;2023-08-21T12:48:20;9.90;;;9.20;;
57551;SDS011;43379;48.160;14.036;2023-08-21T12:50:45;9.50;;;8.70;;
57551;SDS011;43379;48.160;14.036;2023-08-21T12:53:11;9.00;;;8.33;;
57551;SDS011;43379;48.160;14.036;2023-08-21T12:55:37;10.10;;;9.30;;
57551;SDS011;43379;48.160;14.036;2023-08-21T12:58:02;8.57;;;7.87;;
57551;SDS011;43379;48.160;14.036;2023-08-21T13:00:28;8.53;;;7.93;;
57551;SDS011;43379;48.160;14.036;2023-08-21T13:02:54;8.80;;;8.00;;
57551;SDS011;43379;48.160;14.036;2023-08-21T13:05:20;8.27;;;7.67;;
57551;SDS011;43379;48.160;14.036;2023-08-21T13:07:45;8.43;;;7.70;;
57551;SDS011;43379;48.160;14.036;2023-08-21T13:10:11;8.83;;;8.23;;
57551;SDS011;43379;48.160;14.036;2023-08-21T13:12:36;9.00;;;8.30;;
57551;SDS011;43379;48.160;14.036;2023-08-21T13:15:02;8.80;;;8.00;;
57551;SDS011;43379;48.160;14.036;2023-08-21T13:17:29;8.90;;;8.00;;
57551;SDS011;43379;48.160;14.036;2023-08-21T13:19:54;8.20;;;7.50;;
57551;SDS011;43379;48.160;14.036;2023-08-21T13:22:20;8.37;;;7.50;;
57551;SDS011;43379;48.160;14.036;2023-08-21T13:24:46;11.43;;;7.53;;
57551;SDS011;43379;48.160;14.036;2023-08-21T13:27:11;7.93;;;7.23;;
57551;SDS011;43379;48.160;14.036;2023-08-21T13:29:37;8.33;;;7.17;;
57551;SDS011;43379;48.160;14.036;2023-08-21T13:32:04;7.30;;;6.70;;
57551;SDS011;43379;48.160;14.036;2023-08-21T13:34:30;8.03;;;7.23;;
57551;SDS011;43379;48.160;14.036;2023-08-21T13:36:56;8.17;;;7.00;;
57551;SDS011;43379;48.160;14.036;2023-08-21T13:39:22;7.67;;;6.90;;
57551;SDS011;43379;48.160;14.036;2023-08-21T13:41:48;7.83;;;6.90;;
57551;SDS011;43379;48.160;14.036;2023-08-21T13:44:17;7.93;;;7.03;;
57551;SDS011;43379;48.160;14.036;2023-08-21T13:46:42;8.00;;;7.27;;
57551;SDS011;43379;48.160;14.036;2023-08-21T13:49:08;7.13;;;6.50;;
57551;SDS011;43379;48.160;14.036;2023-08-21T13:51:34;8.77;;;7.60;;
57551;SDS011;43379;48.160;14.036;2023-08-21T13:54:00;8.23;;;7.63;;
57551;SDS011;43379;48.160;14.036;2023-08-21T13:56:26;8.27;;;7.00;;
57551;SDS011;43379;48.160;14.036;2023-08-21T13:58:51;7.60;;;6.83;;
57551;SDS011;43379;48.160;14.036;2023-08-21T14:01:17;7.33;;;6.63;;
57551;SDS011;43379;48.160;14.036;2023-08-21T14:03:43;7.83;;;7.23;;
57551;SDS011;43379;48.160;14.036;2023-08-21T14:06:08;7.37;;;6.77;;
57551;SDS011;43379;48.160;14.036;2023-08-21T14:08:37;7.77;;;7.17;;
57551;SDS011;43379;48.160;14.036;2023-08-21T14:11:03;6.67;;;6.03;;
57551;SDS011;43379;48.160;14.036;2023-08-21T14:13:29;7.07;;;6.47;;
57551;SDS011;43379;48.160;14.036;2023-08-21T14:15:55;7.10;;;6.40;;
57551;SDS011;43379;48.160;14.036;2023-08-21T14:18:20;7.57;;;6.97;;
57551;SDS011;43379;48.160;14.036;2023-08-21T14:20:46;6.83;;;6.33;;
57551;SDS011;43379;48.160;14.036;2023-08-21T14:23:12;6.73;;;6.23;;
57551;SDS011;43379;48.160;14.036;2023-08-21T14:25:38;7.10;;;6.40;;
57551;SDS011;43379;48.160;14.036;2023-08-21T14:28:03;6.90;;;6.27;;
57551;SDS011;43379;48.160;14.036;2023-08-21T14:30:29;9.87;;;6.80;;